Time;durP1;ratioP1;P1;durP2;ratioP2;P2;SDS_P1;SDS_P2;PMS_P1;PMS_P2;Temp;Humidity;BMP_temperature;BMP_pressure;BME280_temperature;BME280_humidity;BME280_pressure;Samples;Min_cycle;Max_cycle;Signal;HPM_P1;HPM_P2
2022/08/18 00:01:41;;;;;;;77.50;43.13;;;17.20;99.90;;;;;;4987502;28;20186;-86
2022/08/18 00:04:08;;;;;;;79.30;43.35;;;17.20;99.90;;;;;;4983861;28;20544;-84
2022/08/18 00:06:34;;;;;;;82.00;44.28;;;17.20;99.90;;;;;;4992809;28;20447;-84
2022/08/18 00:09:03;;;;;;;80.10;43.58;;;17.20;99.90;;;;;;4996528;28;20088;-84
2022/08/18 00:11:32;;;;;;;79.82;42.80;;;17.10;99.90;;;;;;4988322;28;20045;-84
2022/08/18 00:13:58;;;;;;;84.10;43.88;;;17.10;99.90;;;;;;4986500;28;20061;-84
2022/08/18 00:16:23;;;;;;;76.38;42.65;;;17.10;99.90;;;;;;4993376;28;20034;-84
2022/08/18 00:18:49;;;;;;;79.57;42.95;;;17.00;99.90;;;;;;4989965;28;20085;-84
2022/08/18 00:21:16;;;;;;;78.25;42.95;;;17.00;99.90;;;;;;4990618;28;20030;-84
2022/08/18 00:23:42;;;;;;;84.68;45.35;;;17.00;99.90;;;;;;4987751;28;20487;-84
2022/08/18 00:26:07;;;;;;;84.35;44.08;;;17.00;99.90;;;;;;4983604;28;20113;-84
2022/08/18 00:28:33;;;;;;;83.90;45.17;;;17.00;99.90;;;;;;4988945;28;20521;-84
2022/08/18 00:31:00;;;;;;;84.53;45.35;;;17.00;99.90;;;;;;4990275;28;20034;-84
2022/08/18 00:33:26;;;;;;;78.10;43.38;;;16.90;99.90;;;;;;4987510;28;20034;-83
2022/08/18 00:35:52;;;;;;;78.85;42.35;;;16.80;99.90;;;;;;4990109;28;20030;-84
2022/08/18 00:38:17;;;;;;;82.32;42.63;;;16.70;99.90;;;;;;4983491;28;20121;-84
2022/08/18 00:40:50;;;;;;;81.78;42.38;;;16.70;99.90;;;;;;4992081;28;20023;-84
2022/08/18 00:43:33;;;;;;;77.50;41.90;;;16.60;99.90;;;;;;4982711;28;20057;-84
2022/08/18 00:46:00;;;;;;;75.68;39.97;;;16.40;99.90;;;;;;4988285;28;20173;-84
2022/08/18 00:48:26;;;;;;;73.35;39.80;;;16.40;99.90;;;;;;4985959;28;20382;-84
2022/08/18 00:51:01;;;;;;;83.03;43.60;;;16.40;99.90;;;;;;4993864;28;20030;-85
2022/08/18 00:53:44;;;;;;;85.03;43.15;;;16.50;99.90;;;;;;4988711;28;20029;-84
2022/08/18 00:56:25;;;;;;;76.05;41.78;;;16.50;99.90;;;;;;4991526;28;20033;-84
2022/08/18 00:59:04;;;;;;;79.40;41.75;;;16.50;99.90;;;;;;4979775;28;20030;-84
2022/08/18 01:01:31;;;;;;;83.07;44.15;;;16.50;99.90;;;;;;4987273;28;20039;-84
2022/08/18 01:04:33;;;;;;;85.38;44.38;;;16.50;99.90;;;;;;4982584;28;20050;-84
2022/08/18 01:07:12;;;;;;;84.30;43.13;;;16.60;99.90;;;;;;4983018;28;20062;-85
2022/08/18 01:09:38;;;;;;;77.82;42.35;;;16.50;99.90;;;;;;4984722;28;20130;-84
2022/08/18 01:12:04;;;;;;;79.32;43.13;;;16.50;99.90;;;;;;4984499;28;20117;-83
2022/08/18 01:14:30;;;;;;;81.32;43.15;;;16.60;99.90;;;;;;4991075;28;20026;-84
2022/08/18 01:22:31;;;;;;;74.50;41.78;;;16.50;99.90;;;;;;4987333;28;20041;-84
2022/08/18 01:27:43;;;;;;;76.65;39.35;;;16.60;99.90;;;;;;4988048;28;20037;-85
2022/08/18 01:30:13;;;;;;;72.43;40.47;;;16.60;99.90;;;;;;4979430;28;20023;-84
2022/08/18 01:32:39;;;;;;;77.97;42.75;;;16.50;99.90;;;;;;4983783;28;20450;-84
2022/08/18 01:35:09;;;;;;;78.75;42.08;;;16.60;99.90;;;;;;4999415;28;20054;-84
2022/08/18 01:37:35;;;;;;;74.57;40.03;;;16.50;99.90;;;;;;4984799;28;20034;-84
2022/08/18 01:40:05;;;;;;;72.15;38.78;;;16.40;99.90;;;;;;4982025;28;20026;-84
2022/08/18 01:42:31;;;;;;;72.57;40.15;;;16.30;99.90;;;;;;4989676;28;20034;-84
2022/08/18 01:44:56;;;;;;;81.97;42.25;;;16.20;99.90;;;;;;4990401;28;20064;-84
2022/08/18 01:47:22;;;;;;;78.97;41.80;;;16.20;99.90;;;;;;4989680;28;20034;-84
2022/08/18 01:49:48;;;;;;;81.38;41.88;;;16.10;99.90;;;;;;4988970;28;20039;-84
2022/08/18 01:52:19;;;;;;;81.68;42.78;;;16.00;99.90;;;;;;4986661;28;20036;-84
2022/08/18 01:54:45;;;;;;;78.80;41.33;;;15.90;99.90;;;;;;4989598;28;20030;-84
2022/08/18 01:57:13;;;;;;;88.60;43.75;;;15.90;99.90;;;;;;4989342;28;20101;-84
2022/08/18 01:59:40;;;;;;;79.45;41.83;;;15.90;99.90;;;;;;4986259;28;20090;-85
2022/08/18 02:02:06;;;;;;;88.85;43.67;;;15.80;99.90;;;;;;4984384;28;20034;-84
2022/08/18 02:04:33;;;;;;;104.30;46.00;;;15.90;99.90;;;;;;4996127;28;20521;-84
2022/08/18 02:07:01;;;;;;;101.53;49.20;;;16.00;99.90;;;;;;4989933;28;20034;-84
2022/08/18 02:09:28;;;;;;;97.75;46.42;;;16.10;99.90;;;;;;4993545;28;20043;-84
2022/08/18 02:11:54;;;;;;;106.88;48.25;;;16.10;99.90;;;;;;4990567;28;20035;-84
2022/08/18 02:14:20;;;;;;;106.45;48.78;;;16.30;99.90;;;;;;4990505;28;20506;-84
2022/08/18 02:16:45;;;;;;;101.22;49.00;;;16.40;99.90;;;;;;4991211;28;20026;-84
2022/08/18 02:19:11;;;;;;;106.05;48.45;;;16.40;99.90;;;;;;4984602;28;20125;-84
2022/08/18 02:21:37;;;;;;;100.93;47.30;;;16.40;99.90;;;;;;4988000;28;20117;-84
2022/08/18 02:24:03;;;;;;;98.93;47.13;;;16.40;99.90;;;;;;4984571;28;20042;-84
2022/08/18 02:26:29;;;;;;;101.53;47.60;;;16.20;99.90;;;;;;4986823;28;20026;-85
2022/08/18 02:28:55;;;;;;;100.22;48.75;;;16.30;99.90;;;;;;4982893;28;20110;-84
2022/08/18 02:31:23;;;;;;;101.13;47.85;;;16.60;99.90;;;;;;4984932;28;20126;-84
2022/08/18 02:33:49;;;;;;;99.45;48.20;;;16.70;99.90;;;;;;4990186;28;20027;-84
2022/08/18 02:36:15;;;;;;;99.50;47.75;;;16.70;99.90;;;;;;4991157;28;20033;-84
2022/08/18 02:38:42;;;;;;;90.93;46.25;;;16.80;99.90;;;;;;4990989;28;20108;-84
2022/08/18 02:41:09;;;;;;;87.88;44.15;;;16.80;99.90;;;;;;5004448;28;21088;-84
2022/08/18 02:43:37;;;;;;;93.28;45.72;;;16.70;99.90;;;;;;4987766;28;20157;-84
2022/08/18 02:46:04;;;;;;;85.10;44.17;;;16.70;99.90;;;;;;4982605;28;20031;-84
2022/08/18 02:48:39;;;;;;;80.15;42.53;;;16.80;99.90;;;;;;4995464;28;20026;-83
2022/08/18 02:51:14;;;;;;;83.78;43.83;;;16.70;99.90;;;;;;4993735;28;20026;-84
2022/08/18 02:53:41;;;;;;;81.00;42.13;;;16.70;99.90;;;;;;4989813;28;20807;-84
2022/08/18 02:56:28;;;;;;;82.18;41.53;;;16.60;99.90;;;;;;4981100;28;20031;-84
2022/08/18 02:59:00;;;;;;;76.03;41.30;;;16.50;99.90;;;;;;4983451;28;20844;-84
2022/08/18 03:01:29;;;;;;;80.22;42.97;;;16.40;99.90;;;;;;4988634;28;20026;-84
2022/08/18 03:03:56;;;;;;;86.68;44.60;;;16.40;99.90;;;;;;4986877;28;20030;-84
2022/08/18 03:06:23;;;;;;;85.75;45.63;;;16.40;99.90;;;;;;4990759;28;20042;-84
2022/08/18 03:08:49;;;;;;;85.07;44.67;;;16.40;99.90;;;;;;4984435;28;20118;-84
2022/08/18 03:11:16;;;;;;;92.65;44.88;;;16.50;99.90;;;;;;4990830;28;20036;-85
2022/08/18 03:13:43;;;;;;;85.35;44.30;;;16.60;99.90;;;;;;5007229;28;20030;-84
2022/08/18 03:16:09;;;;;;;87.40;44.25;;;16.70;99.90;;;;;;4990999;28;20060;-84
2022/08/18 03:18:35;;;;;;;84.18;42.08;;;16.70;99.90;;;;;;4986928;28;20081;-84
2022/08/18 03:21:08;;;;;;;82.47;42.25;;;16.60;99.90;;;;;;4983713;28;20057;-84
2022/08/18 03:23:35;;;;;;;86.95;44.47;;;16.90;99.90;;;;;;4983454;28;20739;-84
2022/08/18 03:26:01;;;;;;;86.93;42.58;;;17.10;99.90;;;;;;4990624;28;20030;-85
2022/08/18 03:28:27;;;;;;;82.00;40.90;;;17.20;99.90;;;;;;4984769;28;20628;-84
2022/08/18 03:30:53;;;;;;;84.53;42.75;;;17.30;99.90;;;;;;4992596;28;20026;-85
2022/08/18 03:33:19;;;;;;;91.28;42.42;;;17.40;99.90;;;;;;5004597;28;20029;-84
2022/08/18 03:35:45;;;;;;;92.93;44.75;;;17.60;99.90;;;;;;4988327;28;20035;-84
2022/08/18 03:38:10;;;;;;;88.93;42.78;;;17.70;99.90;;;;;;4988383;28;20113;-85
2022/08/18 03:40:36;;;;;;;99.07;45.83;;;17.80;99.90;;;;;;4990169;28;20150;-84
2022/08/18 03:43:05;;;;;;;84.57;36.75;;;17.80;99.90;;;;;;4979160;28;20042;-84
2022/08/18 03:45:33;;;;;;;94.45;42.83;;;17.90;99.90;;;;;;4988116;28;20034;-84
2022/08/18 03:48:00;;;;;;;94.82;44.60;;;17.80;99.90;;;;;;4982518;28;20422;-84
2022/08/18 03:50:26;;;;;;;97.35;44.30;;;17.80;99.90;;;;;;4986076;28;20035;-84
2022/08/18 03:52:53;;;;;;;91.72;42.45;;;17.80;99.90;;;;;;4978298;28;20102;-84
2022/08/18 03:55:19;;;;;;;85.97;36.15;;;17.90;99.90;;;;;;4987714;28;20394;-85
2022/08/18 03:57:45;;;;;;;85.57;42.00;;;17.90;99.90;;;;;;4989961;28;20029;-84
2022/08/18 04:00:12;;;;;;;85.18;39.85;;;17.90;99.90;;;;;;4981577;28;20491;-84
2022/08/18 04:02:38;;;;;;;79.82;35.90;;;17.90;99.90;;;;;;4977135;28;20031;-84
2022/08/18 04:05:06;;;;;;;83.75;38.42;;;17.90;99.90;;;;;;4986955;28;20046;-84
2022/08/18 04:07:31;;;;;;;85.38;40.13;;;18.00;99.90;;;;;;4990430;28;20049;-84
2022/08/18 04:09:57;;;;;;;81.97;40.53;;;18.00;99.90;;;;;;4996777;28;20113;-84
2022/08/18 04:12:23;;;;;;;84.30;39.28;;;18.00;99.90;;;;;;4991501;28;20029;-85
2022/08/18 04:14:49;;;;;;;78.55;38.13;;;17.90;99.90;;;;;;4984408;28;20390;-85
2022/08/18 04:17:19;;;;;;;79.70;38.50;;;17.90;99.90;;;;;;4991330;28;20036;-85
2022/08/18 04:19:44;;;;;;;80.82;40.10;;;17.90;99.90;;;;;;4979571;28;20023;-84
2022/08/18 04:22:11;;;;;;;75.55;35.90;;;18.00;99.90;;;;;;4995069;28;20034;-85
2022/08/18 04:24:37;;;;;;;72.45;38.00;;;18.00;99.90;;;;;;4988406;28;20034;-84
2022/08/18 04:27:03;;;;;;;75.88;38.63;;;18.10;99.90;;;;;;4983093;28;20035;-84
2022/08/18 04:29:29;;;;;;;71.75;37.15;;;18.10;99.90;;;;;;4977367;28;20118;-84
2022/08/18 04:31:55;;;;;;;70.18;34.00;;;18.20;99.90;;;;;;4997299;28;20184;-85
2022/08/18 04:34:21;;;;;;;75.82;37.03;;;18.30;99.90;;;;;;4984790;28;20587;-84
2022/08/18 04:36:52;;;;;;;70.90;35.00;;;18.30;99.90;;;;;;4986527;28;20034;-84
2022/08/18 04:39:18;;;;;;;74.07;35.83;;;18.30;99.90;;;;;;4980354;28;20031;-84
2022/08/18 04:41:44;;;;;;;73.20;38.03;;;18.30;99.90;;;;;;4989937;28;20414;-84
2022/08/18 04:44:11;;;;;;;86.10;39.50;;;18.30;99.90;;;;;;4987449;28;20038;-84
2022/08/18 04:46:42;;;;;;;80.35;40.33;;;18.30;99.90;;;;;;4981545;28;20102;-84
2022/08/18 04:49:09;;;;;;;84.30;38.88;;;18.40;99.90;;;;;;4984597;28;20030;-84
2022/08/18 04:51:38;;;;;;;82.50;37.58;;;18.30;99.90;;;;;;4990074;28;20022;-85
2022/08/18 04:54:04;;;;;;;80.10;38.30;;;18.30;99.90;;;;;;4989251;28;20759;-84
2022/08/18 04:56:33;;;;;;;80.55;39.08;;;18.40;99.90;;;;;;4987102;28;20088;-84
2022/08/18 04:59:08;;;;;;;83.28;39.78;;;18.40;99.90;;;;;;4988587;28;20052;-84
2022/08/18 05:01:44;;;;;;;83.43;40.38;;;18.40;99.90;;;;;;5002166;28;20519;-85
2022/08/18 05:04:12;;;;;;;86.65;40.25;;;18.30;99.90;;;;;;4989813;28;20058;-85
2022/08/18 05:06:39;;;;;;;89.47;41.30;;;18.40;99.90;;;;;;4991800;28;20022;-85
2022/08/18 05:09:07;;;;;;;87.18;38.72;;;18.40;99.90;;;;;;4977460;28;20034;-84
2022/08/18 05:11:34;;;;;;;79.97;38.65;;;18.40;99.90;;;;;;4989604;28;20029;-85
2022/08/18 05:14:03;;;;;;;92.55;40.15;;;18.40;99.90;;;;;;4990575;28;20022;-85
2022/08/18 05:16:35;;;;;;;92.60;39.03;;;18.40;99.90;;;;;;4985829;28;20039;-85
2022/08/18 05:19:05;;;;;;;90.45;36.35;;;18.40;99.90;;;;;;4984840;28;20030;-85
2022/08/18 05:21:32;;;;;;;87.18;38.63;;;18.50;99.90;;;;;;4988767;28;20406;-85
2022/08/18 05:23:59;;;;;;;82.95;37.35;;;18.60;99.90;;;;;;4988929;28;20466;-85
2022/08/18 05:26:26;;;;;;;88.85;37.22;;;18.60;99.90;;;;;;4990809;28;20054;-85
2022/08/18 05:28:53;;;;;;;87.70;39.50;;;18.70;99.90;;;;;;4985754;28;20169;-85
2022/08/18 05:31:22;;;;;;;90.43;36.55;;;18.60;99.90;;;;;;4988152;28;20406;-85
2022/08/18 05:33:49;;;;;;;91.18;40.55;;;18.60;99.90;;;;;;4991675;28;20097;-86
2022/08/18 05:36:23;;;;;;;92.22;38.80;;;18.50;99.90;;;;;;4987535;28;20030;-86
2022/08/18 05:39:03;;;;;;;88.53;38.38;;;18.50;99.90;;;;;;4981696;28;20050;-86
2022/08/18 05:41:44;;;;;;;100.82;37.85;;;18.60;99.90;;;;;;4996524;28;20121;-87
2022/08/18 05:44:14;;;;;;;90.38;37.80;;;18.70;99.90;;;;;;4993499;28;20141;-87
2022/08/18 05:46:45;;;;;;;95.47;38.83;;;18.80;99.90;;;;;;4991682;28;20064;-87
2022/08/18 05:49:13;;;;;;;98.15;38.30;;;18.80;99.90;;;;;;4988023;28;20034;-86
2022/08/18 05:51:49;;;;;;;90.82;38.08;;;18.70;99.90;;;;;;4990161;28;20027;-86
2022/08/18 05:57:06;;;;;;;97.70;39.05;;;18.70;99.90;;;;;;4989491;28;20058;-87
2022/08/18 05:59:35;;;;;;;87.75;36.40;;;18.60;99.90;;;;;;4990952;28;20030;-87
2022/08/18 06:02:06;;;;;;;92.40;36.47;;;18.80;99.90;;;;;;4989709;28;20037;-85
2022/08/18 06:05:08;;;;;;;86.50;37.45;;;18.90;99.90;;;;;;4986746;28;20058;-84
2022/08/18 06:07:48;;;;;;;93.07;38.70;;;18.90;99.90;;;;;;4939245;28;20043;-84
2022/08/18 06:10:14;;;;;;;93.18;38.05;;;18.90;99.90;;;;;;4984322;28;20548;-85
2022/08/18 06:12:46;;;;;;;95.00;37.55;;;18.90;99.90;;;;;;4990277;28;20128;-84
2022/08/18 06:15:32;;;;;;;99.20;39.30;;;18.80;99.90;;;;;;4987418;28;20880;-84
2022/08/18 06:18:15;;;;;;;96.07;41.03;;;18.90;99.90;;;;;;4978965;28;20037;-84
2022/08/18 06:21:02;;;;;;;94.07;38.75;;;19.00;99.90;;;;;;4990571;28;20026;-84
2022/08/18 06:23:55;;;;;;;94.82;39.03;;;18.90;99.90;;;;;;4987820;28;20039;-84
2022/08/18 06:26:38;;;;;;;92.78;39.47;;;18.90;99.90;;;;;;5008524;28;20564;-84
2022/08/18 06:29:15;;;;;;;90.32;38.38;;;18.90;99.90;;;;;;4983886;28;20121;-84
2022/08/18 06:31:47;;;;;;;98.35;38.83;;;19.00;99.90;;;;;;4988480;28;20108;-84
2022/08/18 06:34:39;;;;;;;94.72;39.60;;;19.00;99.90;;;;;;5001143;28;20030;-84
2022/08/18 06:37:21;;;;;;;92.03;37.72;;;19.00;99.90;;;;;;4982391;28;20038;-85
2022/08/18 06:39:51;;;;;;;85.22;36.28;;;19.20;99.90;;;;;;4991338;28;20026;-85
2022/08/18 06:42:20;;;;;;;102.03;39.85;;;19.20;99.90;;;;;;4987894;28;20023;-84
2022/08/18 06:44:49;;;;;;;96.28;39.45;;;19.10;99.90;;;;;;4987265;28;20724;-84
2022/08/18 06:47:48;;;;;;;98.00;40.40;;;19.10;99.90;;;;;;4985550;28;20029;-85
2022/08/18 06:50:25;;;;;;;85.97;36.72;;;19.00;99.90;;;;;;4990585;28;20034;-84
2022/08/18 06:52:55;;;;;;;86.10;36.63;;;19.10;99.90;;;;;;4981526;28;20035;-84
2022/08/18 06:55:31;;;;;;;85.75;35.20;;;19.20;99.90;;;;;;4989968;28;20026;-84
2022/08/18 06:58:17;;;;;;;82.10;35.92;;;19.30;99.90;;;;;;4991036;28;20488;-84
2022/08/18 07:00:48;;;;;;;89.13;37.38;;;19.50;99.90;;;;;;4980133;28;20399;-84
2022/08/18 07:03:18;;;;;;;85.90;37.00;;;19.50;99.90;;;;;;5000853;28;20109;-87
2022/08/18 07:06:10;;;;;;;84.85;36.40;;;19.60;99.90;;;;;;4990148;28;20529;-86
2022/08/18 07:08:37;;;;;;;83.18;36.35;;;19.80;99.90;;;;;;4988599;28;20026;-86
2022/08/18 07:11:21;;;;;;;85.30;36.15;;;19.90;99.90;;;;;;5000154;28;20030;-86
2022/08/18 07:13:50;;;;;;;82.00;33.95;;;20.00;99.90;;;;;;5007162;28;20210;-86
2022/08/18 07:16:27;;;;;;;75.88;35.05;;;20.40;99.90;;;;;;4990141;28;20053;-87
2022/08/18 07:18:53;;;;;;;85.15;31.15;;;20.60;99.90;;;;;;4986828;28;20045;-87
2022/08/18 07:21:29;;;;;;;74.68;31.70;;;20.70;99.90;;;;;;4986617;28;20034;-86
2022/08/18 07:24:20;;;;;;;74.10;30.58;;;20.80;99.90;;;;;;4990411;28;20076;-86
2022/08/18 07:27:06;;;;;;;78.60;33.40;;;20.80;99.90;;;;;;4999225;28;20084;-87
2022/08/18 07:29:36;;;;;;;78.25;33.13;;;20.80;99.90;;;;;;4998842;28;20034;-87
2022/08/18 07:32:17;;;;;;;70.55;30.10;;;20.70;99.90;;;;;;4983752;28;20066;-86
2022/08/18 07:34:48;;;;;;;74.47;32.58;;;20.80;99.90;;;;;;4995599;28;20026;-86
2022/08/18 07:37:22;;;;;;;70.45;29.73;;;20.80;99.90;;;;;;4988908;28;20483;-86
2022/08/18 07:39:51;;;;;;;70.90;32.33;;;20.90;99.90;;;;;;4983067;28;20056;-87
2022/08/18 07:43:03;;;;;;;77.13;33.92;;;20.80;99.90;;;;;;4997149;28;20062;-86
2022/08/18 07:45:40;;;;;;;69.72;29.85;;;20.60;99.90;;;;;;4993603;28;20609;-87
2022/08/18 07:48:24;;;;;;;76.55;32.72;;;20.70;99.90;;;;;;4985152;28;20058;-86
2022/08/18 07:50:56;;;;;;;81.85;33.97;;;20.50;99.90;;;;;;4988395;28;20036;-86
2022/08/18 07:53:55;;;;;;;76.47;31.90;;;20.30;99.90;;;;;;4991295;28;20054;-86
2022/08/18 07:57:01;;;;;;;68.05;28.15;;;20.40;99.90;;;;;;4986916;28;20530;-86
2022/08/18 07:59:36;;;;;;;80.03;31.58;;;20.50;99.90;;;;;;4985227;28;20042;-86
2022/08/18 08:02:32;;;;;;;73.25;31.92;;;20.40;99.90;;;;;;5000313;28;20027;-86
2022/08/18 08:05:13;;;;;;;74.25;31.90;;;20.60;99.90;;;;;;4999762;28;20101;-87
2022/08/18 08:07:56;;;;;;;75.88;31.60;;;20.80;99.90;;;;;;5004382;28;20061;-86
2022/08/18 08:10:43;;;;;;;76.68;31.73;;;20.70;99.90;;;;;;4980987;28;20780;-86
2022/08/18 08:13:15;;;;;;;74.03;32.47;;;20.90;99.90;;;;;;4983199;28;20022;-87
2022/08/18 08:16:02;;;;;;;76.20;32.15;;;20.70;99.90;;;;;;5005695;28;20018;-87
2022/08/18 08:18:32;;;;;;;73.90;32.35;;;20.90;99.90;;;;;;4988191;28;20030;-86
2022/08/18 08:21:03;;;;;;;;;;;21.00;99.90;;;;;;4986569;28;20538;-86
2022/08/18 08:24:15;;;;;;;65.90;28.95;;;21.10;99.90;;;;;;4989777;28;20700;-87
2022/08/18 08:26:57;;;;;;;69.50;31.58;;;21.30;99.90;;;;;;4988685;28;20029;-87
2022/08/18 08:29:43;;;;;;;75.78;32.15;;;21.30;99.90;;;;;;4987670;28;20121;-87
2022/08/18 08:32:34;;;;;;;73.70;32.50;;;21.30;99.90;;;;;;4989197;28;20038;-86
2022/08/18 08:35:18;;;;;;;71.72;30.92;;;21.30;99.90;;;;;;4986462;28;20045;-87
2022/08/18 08:37:57;;;;;;;75.88;32.15;;;21.40;99.90;;;;;;4988187;28;20114;-86
2022/08/18 08:40:27;;;;;;;70.18;32.05;;;21.50;99.90;;;;;;4986590;28;20030;-86
2022/08/18 08:43:09;;;;;;;69.28;30.08;;;21.40;99.90;;;;;;5006074;28;20053;-87
2022/08/18 08:46:12;;;;;;;73.32;32.20;;;21.60;99.90;;;;;;5007796;28;20096;-86
2022/08/18 08:48:46;;;;;;;69.88;31.20;;;21.60;99.90;;;;;;4995940;28;20885;-87
2022/08/18 08:51:38;;;;;;;69.95;30.02;;;21.70;99.90;;;;;;4987645;28;20042;-87
2022/08/18 08:54:20;;;;;;;67.55;31.08;;;21.80;99.90;;;;;;4983064;28;20448;-86
2022/08/18 08:56:49;;;;;;;70.35;31.27;;;21.50;99.90;;;;;;4988581;28;20414;-86
2022/08/18 08:59:20;;;;;;;75.90;31.52;;;21.50;99.90;;;;;;4987640;28;20238;-86
2022/08/18 09:02:15;;;;;;;75.10;33.22;;;21.40;99.90;;;;;;4989017;28;20023;-87
2022/08/18 09:05:28;;;;;;;70.85;31.25;;;21.40;99.90;;;;;;4989168;28;20072;-86
2022/08/18 09:08:16;;;;;;;70.53;31.40;;;21.30;99.90;;;;;;4978519;28;20049;-86
2022/08/18 09:11:14;;;;;;;68.28;30.80;;;21.40;99.90;;;;;;4993043;28;20108;-87
2022/08/18 09:14:27;;;;;;;68.20;30.58;;;21.40;99.90;;;;;;4989952;28;20027;-87
2022/08/18 09:17:16;;;;;;;72.90;30.35;;;21.60;99.90;;;;;;4969106;28;20052;-87
2022/08/18 09:20:04;;;;;;;64.40;29.85;;;21.80;99.90;;;;;;4991138;28;20022;-86
2022/08/18 09:22:36;;;;;;;62.15;28.77;;;21.90;99.90;;;;;;4992478;28;20556;-86
2022/08/18 09:25:07;;;;;;;63.80;28.83;;;22.00;99.90;;;;;;4990863;28;20088;-86
2022/08/18 09:27:45;;;;;;;59.88;28.98;;;22.20;99.90;;;;;;4997415;28;20034;-86
2022/08/18 09:30:36;;;;;;;57.25;27.63;;;22.50;99.90;;;;;;5006103;28;20022;-86
2022/08/18 09:33:33;;;;;;;60.13;30.27;;;22.80;99.90;;;;;;4990971;28;20027;-87
2022/08/18 09:36:11;;;;;;;57.83;28.85;;;23.20;99.90;;;;;;4992885;28;20056;-86
2022/08/18 09:41:46;;;;;;;53.33;27.67;;;23.50;99.90;;;;;;4993038;28;20821;-86
2022/08/18 09:44:34;;;;;;;54.58;27.25;;;23.30;99.90;;;;;;4992551;28;20034;-87
2022/08/18 09:47:00;;;;;;;56.22;27.20;;;23.40;99.90;;;;;;4992334;28;20433;-86
2022/08/18 09:49:25;;;;;;;49.45;27.30;;;23.80;99.90;;;;;;4988870;28;20055;-87
2022/08/18 09:51:54;;;;;;;53.17;27.80;;;24.40;99.90;;;;;;4990551;28;20395;-86
2022/08/18 09:54:23;;;;;;;52.97;27.65;;;24.70;99.90;;;;;;4989246;28;20030;-86
2022/08/18 09:56:49;;;;;;;51.05;27.88;;;24.60;99.90;;;;;;4994115;28;20023;-88
2022/08/18 09:59:53;;;;;;;52.75;26.73;;;24.30;99.90;;;;;;5011877;28;20109;-87
2022/08/18 10:02:28;;;;;;;55.15;27.98;;;24.30;99.90;;;;;;4963298;28;20225;-87
2022/08/18 10:05:14;;;;;;;46.33;26.80;;;24.80;99.90;;;;;;4946685;28;20498;-87
2022/08/18 10:07:55;;;;;;;50.42;27.50;;;25.10;99.90;;;;;;4949512;28;20051;-86
2022/08/18 10:10:50;;;;;;;47.20;26.17;;;25.00;99.90;;;;;;4941416;29;20031;-86
2022/08/18 10:13:47;;;;;;;44.25;23.30;;;25.00;99.90;;;;;;4943314;29;20042;-87
2022/08/18 10:17:02;;;;;;;44.38;25.15;;;25.10;99.90;;;;;;4952001;28;20027;-87
2022/08/18 10:19:47;;;;;;;43.88;24.02;;;25.10;99.90;;;;;;4946394;28;20137;-86
2022/08/18 10:22:37;;;;;;;43.38;24.45;;;25.10;99.90;;;;;;4927151;29;20032;-86
2022/08/18 10:25:03;;;;;;;46.15;26.42;;;25.20;99.90;;;;;;4934080;29;20484;-87
2022/08/18 10:27:51;;;;;;;43.10;25.25;;;25.10;99.90;;;;;;4932938;28;20111;-87
2022/08/18 10:30:35;;;;;;;43.83;25.45;;;25.20;99.90;;;;;;4935334;29;20135;-86
2022/08/18 10:33:08;;;;;;;38.70;22.80;;;25.50;99.90;;;;;;4936297;29;20502;-87
2022/08/18 10:35:34;;;;;;;42.63;21.65;;;25.20;99.90;;;;;;4948409;28;20162;-86
2022/08/18 10:38:18;;;;;;;44.10;26.05;;;25.40;99.90;;;;;;4945470;28;20425;-87
2022/08/18 10:40:58;;;;;;;42.55;25.10;;;26.40;99.90;;;;;;4982941;28;20084;-86
2022/08/18 10:43:42;;;;;;;41.50;25.20;;;26.90;99.90;;;;;;4984954;28;20026;-87
2022/08/18 10:46:23;;;;;;;41.63;25.83;;;26.90;99.90;;;;;;4985985;28;20038;-87
2022/08/18 10:49:24;;;;;;;36.40;23.23;;;26.90;99.90;;;;;;4991032;28;20034;-86
2022/08/18 10:52:17;;;;;;;43.25;25.75;;;26.70;99.90;;;;;;4982639;28;20476;-86
2022/08/18 10:55:02;;;;;;;41.00;25.23;;;25.90;99.90;;;;;;4983369;28;20054;-86
2022/08/18 10:58:00;;;;;;;43.30;25.77;;;25.30;99.90;;;;;;4979891;28;20034;-86
2022/08/18 11:00:37;;;;;;;38.83;23.08;;;25.20;99.90;;;;;;4969449;28;20050;-87
2022/08/18 11:03:17;;;;;;;42.90;24.65;;;25.00;99.90;;;;;;4995872;28;20026;-86
2022/08/18 11:05:42;;;;;;;42.13;24.10;;;25.10;99.90;;;;;;4984280;28;20129;-86
2022/08/18 11:08:18;;;;;;;37.50;22.48;;;25.50;99.90;;;;;;4984653;28;20058;-87
2022/08/18 11:10:49;;;;;;;33.35;21.73;;;25.50;99.90;;;;;;4979358;28;20132;-86
2022/08/18 11:13:28;;;;;;;35.03;21.17;;;25.30;99.90;;;;;;4984889;28;20066;-86
2022/08/18 11:16:14;;;;;;;37.13;22.60;;;25.10;99.90;;;;;;4987184;28;20058;-87
2022/08/18 11:18:44;;;;;;;35.10;22.08;;;25.40;99.90;;;;;;4997058;28;20053;-87
2022/08/18 11:21:22;;;;;;;39.05;24.10;;;25.80;99.90;;;;;;4982351;28;20038;-87
2022/08/18 11:24:20;;;;;;;36.30;22.77;;;25.50;99.90;;;;;;4998757;28;20035;-87
2022/08/18 11:26:53;;;;;;;35.80;22.55;;;25.40;99.90;;;;;;4986575;28;20097;-87
2022/08/18 11:29:31;;;;;;;40.28;24.08;;;25.10;99.90;;;;;;4987640;28;20030;-87
2022/08/18 11:32:05;;;;;;;35.88;22.23;;;24.80;99.90;;;;;;4995108;28;20139;-87
2022/08/18 11:34:35;;;;;;;44.10;24.95;;;24.40;99.90;;;;;;4989760;28;20027;-86
2022/08/18 11:37:04;;;;;;;42.92;24.98;;;24.00;99.90;;;;;;4987063;28;20247;-87
2022/08/18 11:39:30;;;;;;;38.50;23.27;;;23.70;99.90;;;;;;4987064;28;20030;-86
2022/08/18 11:41:57;;;;;;;37.83;23.58;;;23.70;99.90;;;;;;4990681;28;20297;-87
2022/08/18 11:44:30;;;;;;;36.72;21.75;;;23.90;99.90;;;;;;4985379;28;20398;-88
2022/08/18 11:47:24;;;;;;;40.53;23.17;;;24.20;99.90;;;;;;4998275;28;20114;-87
2022/08/18 11:50:11;;;;;;;38.58;23.30;;;24.30;99.90;;;;;;4986682;28;20054;-87
2022/08/18 11:52:49;;;;;;;36.17;21.70;;;24.60;99.90;;;;;;4985755;28;20506;-86
2022/08/18 11:55:31;;;;;;;40.13;22.60;;;24.90;99.90;;;;;;4984919;28;20570;-87
2022/08/18 11:57:58;;;;;;;38.40;22.60;;;24.80;99.90;;;;;;4982570;28;20045;-87
2022/08/18 12:00:56;;;;;;;41.33;23.67;;;25.10;99.90;;;;;;4989795;28;20781;-87
2022/08/18 12:03:30;;;;;;;37.00;21.73;;;25.60;99.90;;;;;;5000474;28;20451;-87
2022/08/18 12:06:11;;;;;;;37.42;21.95;;;25.90;99.90;;;;;;4978695;28;20054;-86
2022/08/18 12:08:52;;;;;;;38.08;23.25;;;26.40;99.90;;;;;;4990889;28;20038;-87
2022/08/18 12:11:21;;;;;;;34.55;21.58;;;27.00;99.90;;;;;;4984803;28;20472;-87
2022/08/18 12:13:55;;;;;;;;;;;26.30;99.90;;;;;;4990435;28;20035;-86
2022/08/18 12:16:40;;;;;;;36.13;20.80;;;26.10;99.90;;;;;;4998688;28;20382;-86
2022/08/18 12:19:11;;;;;;;35.20;21.92;;;26.60;99.90;;;;;;4987013;28;20041;-86
2022/08/18 12:21:42;;;;;;;39.63;23.35;;;26.60;99.90;;;;;;4987180;28;20029;-86
2022/08/18 12:24:20;;;;;;;37.63;23.17;;;26.40;99.90;;;;;;4989206;28;20487;-87
2022/08/18 12:26:48;;;;;;;37.45;21.98;;;26.20;99.90;;;;;;4988219;28;20089;-87
2022/08/18 12:29:17;;;;;;;37.42;23.52;;;26.40;99.90;;;;;;4984446;28;20029;-86
2022/08/18 12:31:49;;;;;;;43.38;25.55;;;26.10;99.90;;;;;;4988805;28;20052;-88
2022/08/18 12:34:23;;;;;;;43.53;25.55;;;25.50;99.90;;;;;;4986876;28;20033;-88
2022/08/18 12:36:50;;;;;;;39.33;25.17;;;25.30;99.90;;;;;;4989788;28;20457;-88
2022/08/18 12:39:17;;;;;;;36.53;23.17;;;25.70;99.90;;;;;;4986968;28;20501;-88
2022/08/18 12:41:42;;;;;;;40.53;23.42;;;26.10;99.90;;;;;;4990592;28;20034;-88
2022/08/18 12:44:08;;;;;;;34.50;21.48;;;25.90;99.90;;;;;;4985484;28;20129;-88
2022/08/18 12:46:34;;;;;;;49.92;26.67;;;25.50;99.90;;;;;;4987191;28;20027;-89
2022/08/18 12:49:01;;;;;;;39.25;24.85;;;25.50;99.90;;;;;;4996871;28;20045;-88
2022/08/18 12:51:27;;;;;;;39.58;23.88;;;25.60;99.90;;;;;;4986890;28;20129;-88
2022/08/18 12:53:53;;;;;;;42.15;24.52;;;25.70;99.90;;;;;;4987148;28;20117;-88
2022/08/18 12:56:26;;;;;;;32.35;21.35;;;25.90;99.90;;;;;;4998459;28;20044;-88
2022/08/18 12:58:52;;;;;;;38.47;24.23;;;26.00;99.90;;;;;;4989231;28;20038;-88
2022/08/18 13:01:19;;;;;;;41.67;24.95;;;25.70;99.90;;;;;;4995717;28;20029;-88
2022/08/18 13:03:47;;;;;;;42.00;24.63;;;25.60;99.90;;;;;;4988528;28;20058;-88
2022/08/18 13:06:13;;;;;;;36.47;22.30;;;25.20;99.90;;;;;;4988002;28;20042;-88
2022/08/18 13:08:39;;;;;;;37.78;23.60;;;25.20;99.90;;;;;;4984384;28;20026;-88
2022/08/18 13:11:09;;;;;;;40.60;26.27;;;25.30;99.90;;;;;;4989275;28;20022;-88
2022/08/18 13:13:39;;;;;;;;;;;25.30;99.90;;;;;;4987564;28;20481;-88
2022/08/18 13:16:07;;;;;;;40.40;22.80;;;25.00;99.90;;;;;;4988781;28;19906;-88
2022/08/18 13:18:33;;;;;;;41.58;24.17;;;25.00;99.90;;;;;;4987257;28;20042;-88